Vandenberg Air Force Base
KVBG : now visible

Airfield :











YOU CAN JOIN US ON...

 
LOGIN :

Register | Disclaimer

   EN    FR    IT 

 









Legend :    VFR   Marginal VFR   IFR   Intensive IFR   Very Intensive IFR
Visi :
Ceiling :
>= 8 km
>= 3000ft
5 to 8 km
1000 to 3000 ft
1500m to 5 km
500 to 1000 ft
800 to 1500m
200 to 500 ft
< 800m
< 200 ft
Symbols :   Thunderstorms  Fog  Heavy snow  Heavy precipitations  Wind > 20 kt






- Airport Elevation : 369 ft


KVBG - Vandenberg Air Force Base

CURRENT METAR :
  • 130945Z AUTO 00000KT 3/8SM R12/1800V2800FT FG VV001 12/12 A2991 RMK AO2 SLP131 TSNO $

EXPIRED METARs :
  • 130955Z AUTO 36003KT 3/8SM R12/2000V2600FT FG VV001 13/12 A2990 RMK AO2 SLP127 T01250123 TSNO $
  • 130925Z AUTO 00000KT 3/4SM R12/2400V5000FT BR VV001 12/12 A2990 RMK AO2 VIS 3/4V2 1/2 SLP128 TSNO $
  • 130915Z AUTO 29004KT 2 3/4SM BR OVC001 12/12 A2989 RMK AO2 VIS 1 3/4 RWY12/30 VIS 7/8 RWY30 SLP124 TSNO $
  • 130900Z AUTO 00000KT 3SM BR OVC001 13/12 A2989 RMK AO2 VIS 1 RWY12/30 VIS 7/8 RWY30 SLP124 TSNO $
  • 130855Z AUTO 01005KT 1 5/8SM BR OVC001 13/12 A2988 RMK AO2 VIS 5/8V1 5/8 SLP121 T01250123 58002 TSNO $
  • 130755Z AUTO 36004KT 5/8SM R12/2200V4500FT BR VV001 12/12 A2989 RMK AO2 SLP124 T01210119 401910106 TSNO $
  • 130725Z AUTO 01004KT 1 3/8SM BR OVC001 13/12 A2990 RMK AO2 VIS 1 3/8V2 1/4 VIS 5/8 RWY12/30 VIS 1/2 RWY30 SLP127 TSNO $
  • 130715Z AUTO 00000KT 2SM BR OVC001 12/12 A2990 RMK AO2 VIS 3/4V2 VIS 1/2 RWY12/30 VIS 1/2 RWY30 SLP128 TSNO $
  • 130710Z AUTO 00000KT 1 1/8SM BR OVC001 12/12 A2991 RMK AO2 VIS 1/2V1 1/8 VIS 5/8 RWY12/30 VIS 1/2 RWY30 SLP131 TSNO $
  • 130655Z AUTO 02004KT 3/4SM R12/2400VP6000FT BR VV001 13/12 A2990 RMK AO2 SLP127 T01260124 TSNO $
  • 130555Z AUTO 00000KT 3/8SM R12/2200V2600FT FG VV001 12/12 A2989 RMK AO2 SLP124 T01190117 10172 20111 51005 TSNO $

TAF TAF KVBG
Valid from the 12 at 22:00 until the 14 at 04:00 UTC


122200Z 1222/1404 27009KT 8000 BR BKN006 BKN150 QNH2990INS
TEMPO 1222/1301 4800 BR VCSH BKN005 BKN150
BECMG 1301/1302 VRB06KT 4800 BR OVC003 QNH2992INS
BECMG 1303/1304 VRB06KT 0400 FG VV001 QNH2994INS
BECMG 1315/1316 33006KT 4800 BR OVC003 QNH2991INS
TEMPO 1316/1318 VCTS SCT004 BKN120CB OVC160
BECMG 1317/1318 30010KT 9999 NSW FEW006 SCT120 OVC150 QNH2988INS
TEMPO 1318/1323 VCTS FEW006 BKN120CB OVC150
BECMG 1323/1324 30012KT 6000 BR BKN005 OVC150 QNH2990INS
BECMG 1401/1402 34009KT 3200 BR OVC003 QNH2992INS
BECMG 1403/1404 VRB06KT 0400 FG VV001 QNH2994INS TX19/1320Z TN10/1313Z LAST NO AMDS AFT 1300 NEXT 1514
KZLA FIR / North America



MET'MAP, your aeronautical weather chart ! - Copyright ORBIFLY December 2007 - Disclaimer

ORBIFLY MET'MAP TEAM :

Programming & Development : Alexandra Zaïnal
Original concept : Baudouin d'Aumeries
Technical & hardware support : Manuel Goepfert
Assistance : Marc-Olivier Méhu




SOURCES & CREDITS :

   NOAA       Earth
Advisory